createdAt,value
2022-11-25T00:00:26.847Z,99.25
2022-11-25T00:01:27.346Z,99.44
2022-11-25T00:02:28.374Z,99.72
2022-11-25T00:03:28.365Z,99.25
2022-11-25T00:04:29.000Z,99.44
2022-11-25T00:05:28.927Z,99.34
2022-11-25T00:06:29.815Z,99.06
2022-11-25T00:07:30.319Z,99.34
2022-11-25T00:08:30.452Z,99.44
2022-11-25T00:09:30.783Z,98.87
2022-11-25T00:10:31.974Z,98.39
2022-11-25T00:11:32.456Z,98.58
2022-11-25T00:12:32.364Z,98.87
2022-11-25T00:13:32.889Z,99.25
2022-11-25T00:14:32.939Z,98.96
2022-11-25T00:15:34.138Z,99.34
2022-11-25T00:16:35.135Z,99.06
2022-11-25T00:17:35.249Z,99.25
2022-11-25T00:18:36.177Z,99.44
2022-11-25T00:19:36.375Z,99.06
2022-11-25T00:20:37.267Z,99.34
2022-11-25T00:21:38.149Z,99.34
2022-11-25T00:22:39.040Z,99.25
2022-11-25T00:23:38.988Z,99.06
2022-11-25T00:24:40.397Z,98.77
2022-11-25T00:25:40.318Z,98.58
2022-11-25T00:26:40.643Z,98.68
2022-11-25T00:27:41.327Z,98.58
2022-11-25T00:28:42.583Z,98.58
2022-11-25T00:29:43.480Z,98.3
2022-11-25T00:30:44.414Z,98.49
2022-11-25T00:31:44.744Z,98.77
2022-11-25T00:32:45.323Z,98.58
2022-11-25T00:33:46.237Z,98.58
2022-11-25T00:34:46.854Z,98.87
2022-11-25T00:35:47.460Z,98.77
2022-11-25T00:36:48.639Z,98.58
2022-11-25T00:37:49.656Z,98.68
2022-11-25T00:38:50.560Z,98.68
2022-11-25T00:39:51.482Z,98.68
2022-11-25T00:40:51.697Z,98.21
2022-11-25T00:41:51.899Z,98.68
2022-11-25T00:42:52.076Z,98.49
2022-11-25T00:43:52.322Z,98.39
2022-11-25T00:44:53.229Z,98.49
2022-11-25T00:45:54.266Z,98.02
2022-11-25T00:46:54.905Z,98.02
2022-11-25T00:47:55.906Z,98.39
2022-11-25T00:48:56.824Z,98.49
2022-11-25T00:49:57.443Z,98.49
2022-11-25T00:50:58.054Z,98.68
2022-11-25T00:51:58.961Z,98.96
2022-11-25T00:52:59.601Z,98.96
2022-11-25T00:54:04.525Z,99.44
2022-11-25T00:55:00.434Z,98.96
2022-11-25T00:56:01.054Z,98.87
2022-11-25T00:57:01.535Z,98.21
2022-11-25T00:58:02.138Z,97.64
2022-11-25T00:59:02.390Z,97.64
2022-11-25T01:00:02.776Z,98.39
2022-11-25T01:01:02.906Z,98.49
2022-11-25T01:02:03.358Z,98.49
2022-11-25T01:03:03.661Z,98.3
2022-11-25T01:04:04.276Z,98.21
2022-11-25T01:05:05.206Z,98.3
2022-11-25T01:06:05.403Z,98.49
2022-11-25T01:07:06.021Z,97.92
2022-11-25T01:08:06.710Z,98.3
2022-11-25T01:09:07.622Z,98.58
2022-11-25T01:10:08.267Z,98.3
2022-11-25T01:11:08.459Z,98.77
2022-11-25T01:12:09.383Z,97.92
2022-11-25T01:13:10.011Z,97.92
2022-11-25T01:14:10.258Z,98.3
2022-11-25T01:15:11.169Z,97.92
2022-11-25T01:16:11.285Z,97.73
2022-11-25T01:17:11.922Z,97.92
2022-11-25T01:18:12.367Z,98.02
2022-11-25T01:19:12.556Z,97.83
2022-11-25T01:20:12.870Z,97.83
2022-11-25T01:21:13.057Z,97.83
2022-11-25T01:22:13.659Z,98.21
2022-11-25T01:23:14.293Z,98.11
2022-11-25T01:24:15.489Z,98.21
2022-11-25T01:25:15.958Z,97.45
2022-11-25T01:26:16.469Z,97.45
2022-11-25T01:27:16.652Z,97.16
2022-11-25T01:28:17.636Z,97.45
2022-11-25T01:29:17.881Z,97.45
2022-11-25T01:30:18.795Z,97.45
2022-11-25T01:31:19.074Z,97.64
2022-11-25T01:32:20.010Z,97.16
2022-11-25T01:33:20.211Z,97.45
2022-11-25T01:34:20.546Z,97.45
2022-11-25T01:35:21.451Z,97.26
2022-11-25T01:36:22.363Z,97.92
2022-11-25T01:37:22.987Z,97.64
2022-11-25T01:38:24.061Z,97.45
2022-11-25T01:39:30.368Z,98.02
2022-11-25T01:40:25.521Z,97.83
2022-11-25T01:41:25.414Z,97.64
2022-11-25T01:42:25.898Z,97.73
2022-11-25T01:43:25.804Z,97.45
2022-11-25T01:44:26.340Z,96.97
2022-11-25T01:45:28.734Z,96.78
2022-11-25T01:46:27.407Z,96.59
2022-11-25T01:47:27.284Z,96.5
2022-11-25T01:48:28.560Z,96.41
2022-11-25T01:49:28.750Z,96.31
2022-11-25T01:50:28.930Z,95.84
2022-11-25T01:51:29.534Z,96.12
2022-11-25T01:52:30.026Z,96.12
2022-11-25T01:53:30.657Z,95.74
2022-11-25T01:54:30.847Z,96.03
2022-11-25T01:55:31.662Z,95.93
2022-11-25T01:56:32.151Z,96.03
2022-11-25T01:57:32.060Z,96.03
2022-11-25T01:58:33.076Z,96.59
2022-11-25T01:59:33.297Z,96.78
2022-11-25T02:00:33.922Z,96.78
2022-11-25T02:01:35.044Z,97.26
2022-11-25T02:02:35.606Z,97.26
2022-11-25T02:03:36.151Z,97.16
2022-11-25T02:04:36.554Z,97.26
2022-11-25T02:05:39.524Z,96.69
2022-11-25T02:06:37.164Z,96.78
2022-11-25T02:07:37.972Z,96.31
2022-11-25T02:08:38.648Z,96.22
2022-11-25T02:09:39.132Z,96.69
2022-11-25T02:10:39.316Z,96.69
2022-11-25T02:11:39.917Z,96.5
2022-11-25T02:12:40.261Z,96.59
2022-11-25T02:13:41.474Z,96.03
2022-11-25T02:14:42.360Z,96.69
2022-11-25T02:15:42.972Z,96.41
2022-11-25T02:16:43.335Z,96.5
2022-11-25T02:17:43.891Z,96.78
2022-11-25T02:18:44.663Z,97.26
2022-11-25T02:19:44.868Z,96.88
2022-11-25T02:20:45.075Z,96.78
2022-11-25T02:21:45.682Z,96.22
2022-11-25T02:22:45.876Z,96.31
2022-11-25T02:23:46.184Z,96.41
2022-11-25T02:24:47.526Z,96.12
2022-11-25T02:25:47.825Z,95.93
2022-11-25T02:26:48.021Z,95.65
2022-11-25T02:27:48.355Z,95.84
2022-11-25T02:28:48.757Z,96.03
2022-11-25T02:29:49.718Z,96.12
2022-11-25T02:30:50.320Z,95.65
2022-11-25T02:31:51.402Z,95.45
2022-11-25T02:32:51.788Z,94.32
2022-11-25T02:33:53.140Z,94.04
2022-11-25T02:34:53.737Z,94.13
2022-11-25T02:35:54.356Z,94.04
2022-11-25T02:36:54.537Z,93.94
2022-11-25T02:37:55.726Z,94.13
2022-11-25T02:38:55.748Z,93.56
2022-11-25T02:39:56.690Z,93.94
2022-11-25T02:40:57.906Z,93.65
2022-11-25T02:41:58.516Z,93.27
2022-11-25T02:42:59.700Z,93.37
2022-11-25T02:44:00.609Z,93.84
2022-11-25T02:45:01.148Z,94.13
2022-11-25T02:46:01.992Z,94.7
2022-11-25T02:47:02.354Z,94.89
2022-11-25T02:48:03.525Z,94.98
2022-11-25T02:49:16.597Z,95.07
2022-11-25T02:50:16.511Z,95.36
2022-11-25T02:51:16.847Z,95.74
2022-11-25T02:52:17.757Z,95.84
2022-11-25T02:53:18.388Z,95.45
2022-11-25T02:54:18.302Z,95.26
2022-11-25T02:55:18.912Z,95.07
2022-11-25T02:56:20.102Z,94.98
2022-11-25T02:57:21.023Z,95.17
2022-11-25T02:58:21.511Z,95.07
2022-11-25T02:59:21.527Z,94.7
2022-11-25T03:00:22.056Z,94.6
2022-11-25T03:01:23.145Z,94.7
2022-11-25T03:02:23.463Z,94.13
2022-11-25T03:03:24.620Z,94.04
2022-11-25T03:04:24.905Z,94.6
2022-11-25T03:05:25.580Z,94.51
2022-11-25T03:06:26.484Z,95.07
2022-11-25T03:07:26.549Z,95.17
2022-11-25T03:08:27.467Z,94.98
2022-11-25T03:09:27.887Z,95.45
2022-11-25T03:10:28.376Z,95.26
2022-11-25T03:11:29.285Z,95.74
2022-11-25T03:12:30.175Z,95.45
2022-11-25T03:13:30.659Z,95.55
2022-11-25T03:14:31.576Z,95.84
2022-11-25T03:15:31.817Z,95.74
2022-11-25T03:16:33.107Z,95.84
2022-11-25T03:17:33.568Z,95.55
2022-11-25T03:18:34.749Z,95.84
2022-11-25T03:19:35.481Z,95.93
2022-11-25T03:20:36.391Z,95.84
2022-11-25T03:21:37.307Z,95.36
2022-11-25T03:22:37.216Z,95.07
2022-11-25T03:23:37.444Z,95.26
2022-11-25T03:24:38.484Z,95.17
2022-11-25T03:25:39.089Z,95.45
2022-11-25T03:26:39.680Z,95.55
2022-11-25T03:27:40.576Z,95.74
2022-11-25T03:28:40.778Z,96.12
2022-11-25T03:29:41.484Z,95.84
2022-11-25T03:30:42.016Z,96.03
2022-11-25T03:31:42.979Z,95.93
2022-11-25T03:32:43.188Z,95.74
2022-11-25T03:33:43.653Z,96.69
2022-11-25T03:34:44.531Z,96.5
2022-11-25T03:35:44.165Z,96.5
2022-11-25T03:36:44.879Z,96.5
2022-11-25T03:37:45.609Z,96.41
2022-11-25T03:38:45.520Z,96.59
2022-11-25T03:39:46.534Z,96.69
2022-11-25T03:40:47.745Z,96.59
2022-11-25T03:41:48.651Z,96.41
2022-11-25T03:42:48.688Z,96.59
2022-11-25T03:43:49.603Z,96.59
2022-11-25T03:44:50.514Z,96.03
2022-11-25T03:45:50.910Z,96.59
2022-11-25T03:46:51.744Z,96.5
2022-11-25T03:47:52.403Z,96.59
2022-11-25T03:48:52.577Z,96.59
2022-11-25T03:49:53.292Z,96.59
2022-11-25T03:50:53.200Z,96.41
2022-11-25T03:51:54.095Z,96.59
2022-11-25T03:52:54.303Z,96.31
2022-11-25T03:53:54.936Z,96.97
2022-11-25T03:54:55.849Z,96.88
2022-11-25T03:55:56.758Z,96.78
2022-11-25T03:56:56.961Z,97.07
2022-11-25T03:57:57.445Z,97.07
2022-11-25T03:58:58.354Z,96.78
2022-11-25T03:59:59.379Z,97.35
2022-11-25T04:00:59.985Z,97.16
2022-11-25T04:02:00.254Z,97.26
2022-11-25T04:03:00.745Z,97.45
2022-11-25T04:04:01.223Z,97.26
2022-11-25T04:05:02.142Z,97.26
2022-11-25T04:06:02.345Z,97.07
2022-11-25T04:07:02.537Z,97.35
2022-11-25T04:08:03.492Z,96.97
2022-11-25T04:09:03.481Z,96.78
2022-11-25T04:10:03.914Z,96.97
2022-11-25T04:11:04.548Z,97.07
2022-11-25T04:12:04.453Z,97.07
2022-11-25T04:13:05.361Z,96.97
2022-11-25T04:14:06.582Z,97.26
2022-11-25T04:15:07.490Z,97.35
2022-11-25T04:16:08.021Z,97.35
2022-11-25T04:17:08.912Z,96.97
2022-11-25T04:18:09.246Z,97.45
2022-11-25T04:19:10.127Z,97.45
2022-11-25T04:20:11.154Z,98.02
2022-11-25T04:21:11.770Z,97.73
2022-11-25T04:22:12.981Z,97.73
2022-11-25T04:23:12.943Z,97.16
2022-11-25T04:24:13.547Z,97.21
2022-11-25T04:25:14.763Z,96.97
2022-11-25T04:26:15.383Z,96.41
2022-11-25T04:27:16.095Z,96.59
2022-11-25T04:28:16.624Z,96.5
2022-11-25T04:29:17.535Z,96.78
2022-11-25T04:30:17.815Z,96.97
2022-11-25T04:31:18.525Z,96.59
2022-11-25T04:32:18.896Z,96.03
2022-11-25T04:33:20.238Z,95.93
2022-11-25T04:34:20.425Z,95.84
2022-11-25T04:35:20.648Z,95.26
2022-11-25T04:36:21.557Z,95.55
2022-11-25T04:37:21.866Z,95.45
2022-11-25T04:38:22.906Z,95.26
2022-11-25T04:39:24.094Z,95.36
2022-11-25T04:40:24.813Z,95.84
2022-11-25T04:41:25.159Z,96.03
2022-11-25T04:42:26.047Z,96.03
2022-11-25T04:43:26.405Z,95.74
2022-11-25T04:44:26.891Z,96.22
2022-11-25T04:45:36.904Z,95.93
2022-11-25T04:46:30.981Z,96.12
2022-11-25T04:47:31.083Z,95.26
2022-11-25T04:48:32.011Z,94.32
2022-11-25T04:49:32.597Z,94.6
2022-11-25T04:50:33.742Z,94.23
2022-11-25T04:51:34.381Z,94.32
2022-11-25T04:52:34.877Z,94.04
2022-11-25T04:53:35.865Z,94.13
2022-11-25T04:54:36.769Z,93.94
2022-11-25T04:55:37.340Z,93.84
2022-11-25T04:56:37.960Z,93.94
2022-11-25T04:57:39.301Z,94.13
2022-11-25T04:58:39.513Z,94.04
2022-11-25T04:59:40.140Z,94.04
2022-11-25T05:00:41.438Z,94.6
2022-11-25T05:01:41.837Z,94.23
2022-11-25T05:02:42.521Z,94.51
2022-11-25T05:03:48.202Z,94.23
2022-11-25T05:04:44.637Z,94.23
2022-11-25T05:05:44.857Z,94.6
2022-11-25T05:06:45.481Z,94.98
2022-11-25T05:07:46.561Z,95.36
2022-11-25T05:08:46.849Z,95.17
2022-11-25T05:09:48.047Z,95.26
2022-11-25T05:10:48.481Z,95.45
2022-11-25T05:11:48.379Z,95.93
2022-11-25T05:12:49.270Z,95.93
2022-11-25T05:13:49.661Z,95.55
2022-11-25T05:14:50.284Z,95.45
2022-11-25T05:15:51.206Z,95.36
2022-11-25T05:16:52.311Z,94.79
2022-11-25T05:17:52.913Z,95.17
2022-11-25T05:18:53.129Z,95.26
2022-11-25T05:19:53.303Z,95.26
2022-11-25T05:20:53.556Z,94.42
2022-11-25T05:21:53.458Z,94.42
2022-11-25T05:22:54.365Z,94.51
2022-11-25T05:24:01.156Z,94.13
2022-11-25T05:24:56.054Z,94.7
2022-11-25T05:25:56.417Z,94.04
2022-11-25T05:26:56.609Z,94.32
2022-11-25T05:27:57.918Z,94.6
2022-11-25T05:28:58.268Z,94.42
2022-11-25T05:30:01.573Z,94.13
2022-11-25T05:30:58.797Z,93.94
2022-11-25T05:31:59.002Z,94.04
2022-11-25T05:33:00.250Z,94.32
2022-11-25T05:34:00.462Z,94.6
2022-11-25T05:35:01.358Z,93.75
2022-11-25T05:36:02.282Z,93.18
2022-11-25T05:37:02.917Z,93.08
2022-11-25T05:38:03.876Z,93.46
2022-11-25T05:39:03.783Z,92.8
2022-11-25T05:40:04.398Z,92.71
2022-11-25T05:41:05.709Z,93.37
2022-11-25T05:42:05.920Z,93.27
2022-11-25T05:43:06.126Z,92.99
2022-11-25T05:44:06.337Z,93.56
2022-11-25T05:45:06.621Z,93.56
2022-11-25T05:46:07.661Z,92.8
2022-11-25T05:47:07.817Z,93.08
2022-11-25T05:48:08.405Z,93.37
2022-11-25T05:49:09.047Z,92.8
2022-11-25T05:50:09.651Z,92.14
2022-11-25T05:51:10.641Z,92.14
2022-11-25T05:52:11.122Z,92.71
2022-11-25T05:53:11.439Z,93.18
2022-11-25T05:54:11.772Z,93.46
2022-11-25T05:55:12.379Z,92.71
2022-11-25T05:56:13.309Z,93.37
2022-11-25T05:57:13.907Z,93.46
2022-11-25T05:58:14.392Z,92.61
2022-11-25T05:59:14.299Z,92.52
2022-11-25T06:00:15.192Z,92.71
2022-11-25T06:01:15.924Z,92.33
2022-11-25T06:02:16.756Z,91.47
2022-11-25T06:03:17.394Z,91.38
2022-11-25T06:04:17.973Z,91.47
2022-11-25T06:05:18.869Z,90.62
2022-11-25T06:06:19.838Z,90.81
2022-11-25T06:07:19.877Z,91.09
2022-11-25T06:08:20.090Z,91
2022-11-25T06:09:21.009Z,90.81
2022-11-25T06:10:21.599Z,90.43
2022-11-25T06:11:22.689Z,90.62
2022-11-25T06:12:22.876Z,90.24
2022-11-25T06:13:23.139Z,90.34
2022-11-25T06:14:23.765Z,90.34
2022-11-25T06:15:24.064Z,90.24
2022-11-25T06:16:25.155Z,90.53
2022-11-25T06:17:25.224Z,89.96
2022-11-25T06:18:25.488Z,89.77
2022-11-25T06:19:26.149Z,90.15
2022-11-25T06:20:27.059Z,89.77
2022-11-25T06:21:28.111Z,89.96
2022-11-25T06:22:28.313Z,89.86
2022-11-25T06:23:28.647Z,90.43
2022-11-25T06:24:29.265Z,89.77
2022-11-25T06:25:29.777Z,89.67
2022-11-25T06:26:29.666Z,89.77
2022-11-25T06:27:44.205Z,89.77
2022-11-25T06:28:31.494Z,89.77
2022-11-25T06:29:31.387Z,89.96
2022-11-25T06:30:31.722Z,90.43
2022-11-25T06:31:32.748Z,90.43
2022-11-25T06:32:36.400Z,89.86
2022-11-25T06:33:33.587Z,89.77
2022-11-25T06:34:35.019Z,90.05
2022-11-25T06:35:34.910Z,89.48
2022-11-25T06:36:36.106Z,89.39
2022-11-25T06:37:36.430Z,89.39
2022-11-25T06:38:37.660Z,89.39
2022-11-25T06:39:37.881Z,90.24
2022-11-25T06:40:38.893Z,89.39
2022-11-25T06:41:39.182Z,89.39
2022-11-25T06:42:39.793Z,89.11
2022-11-25T06:43:40.687Z,89.11
2022-11-25T06:44:41.521Z,88.92
2022-11-25T06:45:41.710Z,88.63
2022-11-25T06:46:42.830Z,87.87
2022-11-25T06:47:43.076Z,87.21
2022-11-25T06:48:43.037Z,87.21
2022-11-25T06:49:43.985Z,86.64
2022-11-25T06:50:43.883Z,86.55
2022-11-25T06:51:44.347Z,86.83
2022-11-25T06:52:44.553Z,86.26
2022-11-25T06:53:45.155Z,85.93
2022-11-25T06:54:45.767Z,85.64
2022-11-25T06:55:46.276Z,85.45
2022-11-25T06:56:46.645Z,85.64
2022-11-25T06:57:47.130Z,86.02
2022-11-25T06:58:47.444Z,85.55
2022-11-25T06:59:48.139Z,85.26
2022-11-25T07:00:49.060Z,85.64
2022-11-25T07:01:49.161Z,85.64
2022-11-25T07:02:54.042Z,85.74
2022-11-25T07:03:49.810Z,85.36
2022-11-25T07:04:50.209Z,85.64
2022-11-25T07:05:51.091Z,86.02
2022-11-25T07:06:51.603Z,86.02
2022-11-25T07:07:51.629Z,86.02
2022-11-25T07:08:52.066Z,85.93
2022-11-25T07:09:52.973Z,85.93
2022-11-25T07:10:53.891Z,86.59
2022-11-25T07:11:54.881Z,86.02
2022-11-25T07:12:54.927Z,86.4
2022-11-25T07:13:55.844Z,86.59
2022-11-25T07:14:56.746Z,86.68
2022-11-25T07:15:57.117Z,87.25
2022-11-25T07:16:57.248Z,86.97
2022-11-25T07:17:57.712Z,86.59
2022-11-25T07:18:58.244Z,86.97
2022-11-25T07:19:59.180Z,87.06
2022-11-25T07:21:00.086Z,87.06
2022-11-25T07:22:00.407Z,86.78
2022-11-25T07:23:01.325Z,86.97
2022-11-25T07:24:02.263Z,87.06
2022-11-25T07:25:02.816Z,86.49
2022-11-25T07:26:03.135Z,86.78
2022-11-25T07:27:03.327Z,87.16
2022-11-25T07:28:04.366Z,86.97
2022-11-25T07:29:10.731Z,86.59
2022-11-25T07:31:31.943Z,86.02
2022-11-25T07:32:00.133Z,85.74
2022-11-25T07:33:01.554Z,86.21
2022-11-25T07:34:02.121Z,86.02
2022-11-25T07:35:02.583Z,86.49
2022-11-25T07:36:03.191Z,85.64
2022-11-25T07:37:04.137Z,84.98
2022-11-25T07:38:04.047Z,84.88
2022-11-25T07:39:05.264Z,84.98
2022-11-25T07:40:05.326Z,85.74
2022-11-25T07:41:05.961Z,85.45
2022-11-25T07:42:06.590Z,85.36
2022-11-25T07:43:07.305Z,85.74
2022-11-25T07:44:07.504Z,85.83
2022-11-25T07:45:07.985Z,85.64
2022-11-25T07:46:08.557Z,85.55
2022-11-25T07:47:08.726Z,85.36
2022-11-25T07:48:09.650Z,85.55
2022-11-25T07:49:10.269Z,85.74
2022-11-25T07:50:10.927Z,86.11
2022-11-25T07:51:11.539Z,86.3
2022-11-25T07:52:12.052Z,86.02
2022-11-25T07:53:12.510Z,86.21
2022-11-25T07:54:13.475Z,86.3
2022-11-25T07:55:14.112Z,86.78
2022-11-25T07:56:15.059Z,86.87
2022-11-25T07:57:15.271Z,86.68
2022-11-25T07:58:15.471Z,86.87
2022-11-25T07:59:16.371Z,86.78
2022-11-25T08:00:17.455Z,86.59
2022-11-25T08:01:18.229Z,86.78
2022-11-25T08:02:19.372Z,87.06
2022-11-25T08:03:20.158Z,86.78
2022-11-25T08:04:25.336Z,86.59
2022-11-25T08:05:20.971Z,86.97
2022-11-25T08:06:22.154Z,86.82
2022-11-25T08:07:22.545Z,86.54
2022-11-25T08:08:22.943Z,86.07
2022-11-25T08:09:24.225Z,85.97
2022-11-25T08:10:24.962Z,85.68
2022-11-25T08:11:25.864Z,86.16
2022-11-25T08:12:26.502Z,85.68
2022-11-25T08:13:27.228Z,85.68
2022-11-25T08:14:28.163Z,84.74
2022-11-25T08:15:28.048Z,84.26
2022-11-25T08:16:29.298Z,83.78
2022-11-25T08:17:29.772Z,83.12
2022-11-25T08:18:30.671Z,82.17
2022-11-25T08:19:36.719Z,83.03
2022-11-25T08:20:32.126Z,82.55
2022-11-25T08:21:32.776Z,83.22
2022-11-25T08:22:33.181Z,83.12
2022-11-25T08:23:33.970Z,83.03
2022-11-25T08:24:34.203Z,82.84
2022-11-25T08:25:34.522Z,82.65
2022-11-25T08:26:35.197Z,82.74
2022-11-25T08:27:36.399Z,82.93
2022-11-25T08:28:36.408Z,82.65
2022-11-25T08:29:37.268Z,82.08
2022-11-25T08:30:37.144Z,81.88
2022-11-25T08:31:38.364Z,81.79
2022-11-25T08:32:39.074Z,81.88
2022-11-25T08:33:39.537Z,81.84
2022-11-25T08:34:39.822Z,81.55
2022-11-25T08:35:40.835Z,81.74
2022-11-25T08:36:46.635Z,81.17
2022-11-25T08:37:41.977Z,81.45
2022-11-25T08:38:42.201Z,81.36
2022-11-25T08:39:58.566Z,81.45
2022-11-25T08:40:43.382Z,81.45
2022-11-25T08:41:43.290Z,81.45
2022-11-25T08:42:43.786Z,81.26
2022-11-25T08:43:44.000Z,81.26
2022-11-25T08:44:44.068Z,80.88
2022-11-25T08:45:45.034Z,80.88
2022-11-25T08:46:45.880Z,80.69
2022-11-25T08:47:46.402Z,81.36
2022-11-25T08:48:47.323Z,80.69
2022-11-25T08:49:48.598Z,80.55
2022-11-25T08:50:48.636Z,79.79
2022-11-25T08:51:49.123Z,79.74
2022-11-25T08:52:49.351Z,80.22
2022-11-25T08:53:50.076Z,80.93
2022-11-25T08:54:50.591Z,80.69
2022-11-25T08:55:50.501Z,80.6
2022-11-25T08:56:51.414Z,80.69
2022-11-25T08:57:51.611Z,80.79
2022-11-25T08:58:51.852Z,80.22
2022-11-25T08:59:52.052Z,80.6
2022-11-25T09:00:52.251Z,80.26
2022-11-25T09:01:53.626Z,80.35
2022-11-25T09:02:53.741Z,80.51
2022-11-25T09:03:54.291Z,80.64
2022-11-25T09:04:54.851Z,80.64
2022-11-25T09:05:55.826Z,80.55
2022-11-25T09:06:56.088Z,80.26
2022-11-25T09:07:56.953Z,80.55
2022-11-25T09:08:56.817Z,80.64
2022-11-25T09:09:57.093Z,80.35
2022-11-25T09:10:56.995Z,79.97
2022-11-25T09:11:57.877Z,80.26
2022-11-25T09:12:58.580Z,79.88
2022-11-25T09:13:59.961Z,79.69
2022-11-25T09:15:00.597Z,79.5
2022-11-25T09:16:00.930Z,79.22
2022-11-25T09:17:00.995Z,79.41
2022-11-25T09:18:01.269Z,78.93
2022-11-25T09:19:01.994Z,79.22
2022-11-25T09:20:02.523Z,78.45
2022-11-25T09:21:02.765Z,78.55
2022-11-25T09:22:03.383Z,78.55
2022-11-25T09:23:03.603Z,78.64
2022-11-25T09:24:03.631Z,78.83
2022-11-25T09:25:04.829Z,78.93
2022-11-25T09:26:05.500Z,79.03
2022-11-25T09:27:06.122Z,78.74
2022-11-25T09:28:06.651Z,77.89
2022-11-25T09:29:06.576Z,77.51
2022-11-25T09:30:07.226Z,77.6
2022-11-25T09:31:08.040Z,78.08
2022-11-25T09:32:08.322Z,77.22
2022-11-25T09:33:08.822Z,78.08
2022-11-25T09:34:08.809Z,77.98
2022-11-25T09:35:09.084Z,77.79
2022-11-25T09:36:10.308Z,77.89
2022-11-25T09:37:10.300Z,77.73
2022-11-25T09:38:11.323Z,77.36
2022-11-25T09:39:11.946Z,76.5
2022-11-25T09:40:12.145Z,76.59
2022-11-25T09:41:12.832Z,76.88
2022-11-25T09:42:13.309Z,77.07
2022-11-25T09:43:14.306Z,76.78
2022-11-25T09:44:14.754Z,77.07
2022-11-25T09:45:14.966Z,76.35
2022-11-25T09:46:15.710Z,75.49
2022-11-25T09:47:15.871Z,75.02
2022-11-25T09:48:16.768Z,74.87
2022-11-25T09:49:17.261Z,73.38
2022-11-25T09:50:17.512Z,73.19
2022-11-25T09:51:18.457Z,72.42
2022-11-25T09:52:19.001Z,71.19
2022-11-25T09:53:19.242Z,70.81
2022-11-25T09:54:19.534Z,71.51
2022-11-25T09:55:20.033Z,70.18
2022-11-25T09:56:20.526Z,70.27
2022-11-25T09:57:21.169Z,69.79
2022-11-25T09:58:22.398Z,69.42
2022-11-25T09:59:22.596Z,68.69
2022-11-25T10:00:23.429Z,68.59
2022-11-25T10:01:24.078Z,68.34
2022-11-25T10:02:25.313Z,67.29
2022-11-25T10:03:25.973Z,66.44
2022-11-25T10:04:26.330Z,65.7
2022-11-25T10:05:26.573Z,64.56
2022-11-25T10:06:27.952Z,64.28
2022-11-25T10:07:28.380Z,63.73
2022-11-25T10:08:28.897Z,62.88
2022-11-25T10:09:29.191Z,62.21
2022-11-25T10:10:29.967Z,61.38
2022-11-25T10:11:29.970Z,61.38
2022-11-25T10:12:30.468Z,61.29
2022-11-25T10:13:30.983Z,60.71
2022-11-25T10:14:31.986Z,59.47
2022-11-25T10:15:32.246Z,59.47
2022-11-25T10:16:32.796Z,58.73
2022-11-25T10:17:33.182Z,59.22
2022-11-25T10:18:34.181Z,59.12
2022-11-25T10:19:34.670Z,59.15
2022-11-25T10:20:34.653Z,58.48
2022-11-25T10:21:35.619Z,57.04
2022-11-25T10:22:36.111Z,56.5
2022-11-25T10:23:37.064Z,55.93
2022-11-25T10:24:41.166Z,55.86
2022-11-25T10:25:37.544Z,55.38
2022-11-25T10:26:38.473Z,54.71
2022-11-25T10:27:38.971Z,54.23
2022-11-25T10:28:39.919Z,53.47
2022-11-25T10:29:40.805Z,53.88
2022-11-25T10:30:41.091Z,53.59
2022-11-25T10:31:42.005Z,52.92
2022-11-25T10:32:42.202Z,52.92
2022-11-25T10:33:43.281Z,52.83
2022-11-25T10:34:44.203Z,53.62
2022-11-25T10:35:44.527Z,54.1
2022-11-25T10:36:45.064Z,52.37
2022-11-25T10:37:44.991Z,51.61
2022-11-25T10:38:45.946Z,51.42
2022-11-25T10:39:46.448Z,50.87
2022-11-25T10:40:46.661Z,50.96
2022-11-25T10:41:47.319Z,51.15
2022-11-25T10:42:47.508Z,51.25
2022-11-25T10:43:48.153Z,51.73
2022-11-25T10:44:48.486Z,52.11
2022-11-25T10:45:49.790Z,52.37
2022-11-25T10:47:17.932Z,52.09
2022-11-25T10:47:51.362Z,52.54
2022-11-25T10:48:52.268Z,52.89
2022-11-25T10:49:52.472Z,53.44
2022-11-25T10:50:52.747Z,53.92
2022-11-25T10:51:53.718Z,54.37
2022-11-25T10:52:53.919Z,54.75
2022-11-25T10:53:54.433Z,54.75
2022-11-25T10:54:54.723Z,56.63
2022-11-25T10:55:55.654Z,57.59
2022-11-25T10:56:56.144Z,57.56
2022-11-25T10:57:57.126Z,57.65
2022-11-25T10:58:57.791Z,57.65
2022-11-25T10:59:58.747Z,58.7
2022-11-25T11:00:59.347Z,59.63
2022-11-25T11:02:00.836Z,60.21
2022-11-25T11:03:01.030Z,60.02
2022-11-25T11:04:01.913Z,60.3
2022-11-25T11:05:02.524Z,60.68
2022-11-25T11:06:02.560Z,61.22
2022-11-25T11:07:03.824Z,60.75
2022-11-25T11:08:04.206Z,60.65
2022-11-25T11:09:05.177Z,60.84
2022-11-25T11:10:05.102Z,60.46
2022-11-25T11:11:06.109Z,60.36
2022-11-25T11:12:07.035Z,61.13
2022-11-25T11:13:07.239Z,61.57
2022-11-25T11:14:07.440Z,62.72
2022-11-25T11:15:08.264Z,61.29
2022-11-25T11:16:08.904Z,60.81
2022-11-25T11:17:09.808Z,61.38
2022-11-25T11:18:10.460Z,61.57
2022-11-25T11:19:10.678Z,61.67
2022-11-25T11:20:11.340Z,61.29
2022-11-25T11:21:12.316Z,62.15
2022-11-25T11:22:12.838Z,62.43
2022-11-25T11:23:14.848Z,62.81
2022-11-25T11:24:13.856Z,63.76
2022-11-25T11:25:13.624Z,63.92
2022-11-25T11:26:14.553Z,64.24
2022-11-25T11:27:14.758Z,64.21
2022-11-25T11:28:15.247Z,64.5
2022-11-25T11:29:19.644Z,64.78
2022-11-25T11:30:16.578Z,65.83
2022-11-25T11:31:16.673Z,65.92
2022-11-25T11:32:17.223Z,65.83
2022-11-25T11:33:17.857Z,64.59
2022-11-25T11:34:17.758Z,65.86
2022-11-25T11:35:18.773Z,67.1
2022-11-25T11:36:19.036Z,66.44
2022-11-25T11:37:19.978Z,65.61
2022-11-25T11:38:20.886Z,65.42
2022-11-25T11:39:21.104Z,64.75
2022-11-25T11:40:21.330Z,63.64
2022-11-25T11:41:22.253Z,62.3
2022-11-25T11:42:22.469Z,62.59
2022-11-25T11:43:23.395Z,62.81
2022-11-25T11:44:23.623Z,61.76
2022-11-25T11:45:24.239Z,61.38
2022-11-25T11:46:25.360Z,61.51
2022-11-25T11:47:26.010Z,61.79
2022-11-25T11:48:26.452Z,60.77
2022-11-25T11:49:30.806Z,59.18
2022-11-25T11:50:27.895Z,57.93
2022-11-25T11:51:28.457Z,57.26
2022-11-25T11:52:28.692Z,58.12
2022-11-25T11:53:29.456Z,57.87
2022-11-25T11:54:29.678Z,58.25
2022-11-25T11:55:29.777Z,59.01
2022-11-25T11:56:40.626Z,59.59
2022-11-25T11:57:30.250Z,59.49
2022-11-25T11:58:30.899Z,57.97
2022-11-25T11:59:31.122Z,55.29
2022-11-25T12:00:31.336Z,54.9
2022-11-25T12:01:32.015Z,54.43
2022-11-25T12:02:32.307Z,54.52
2022-11-25T12:03:32.324Z,55.1
2022-11-25T12:04:32.500Z,54.8
2022-11-25T12:05:33.424Z,55.96
2022-11-25T12:06:33.699Z,55.38
2022-11-25T12:07:34.558Z,56.53
2022-11-25T12:08:34.900Z,57.39
2022-11-25T12:09:35.839Z,59.2
2022-11-25T12:10:36.499Z,57.42
2022-11-25T12:11:36.694Z,54.74
2022-11-25T12:12:37.928Z,55.12
2022-11-25T12:13:37.839Z,54.36
2022-11-25T12:14:38.271Z,54.45
2022-11-25T12:15:39.119Z,55.79
2022-11-25T12:16:40.415Z,55.82
2022-11-25T12:17:40.439Z,56.01
2022-11-25T12:18:41.697Z,56.87
2022-11-25T12:19:42.314Z,56.01
2022-11-25T12:20:43.557Z,54.86
2022-11-25T12:21:47.186Z,54.86
2022-11-25T12:22:44.610Z,54.89
2022-11-25T12:23:44.823Z,54.6
2022-11-25T12:24:45.771Z,54.12
2022-11-25T12:25:45.786Z,53.83
2022-11-25T12:26:46.688Z,53.74
2022-11-25T12:27:47.633Z,54.03
2022-11-25T12:28:48.279Z,53.74
2022-11-25T12:29:49.567Z,55.36
2022-11-25T12:30:50.214Z,56.13
2022-11-25T12:31:51.210Z,56.23
2022-11-25T12:32:51.874Z,57.03
2022-11-25T12:33:52.078Z,57.41
2022-11-25T12:34:52.728Z,57.41
2022-11-25T12:35:53.200Z,55.49
2022-11-25T12:36:53.783Z,54.91
2022-11-25T12:37:54.749Z,54.44
2022-11-25T12:38:55.278Z,54.05
2022-11-25T12:39:56.205Z,54.79
2022-11-25T12:40:56.709Z,55.18
2022-11-25T12:41:57.650Z,55.11
2022-11-25T12:42:57.577Z,55.97
2022-11-25T12:43:58.545Z,57.57
2022-11-25T12:44:58.790Z,55.08
2022-11-25T12:45:59.445Z,55.65
2022-11-25T12:46:59.839Z,54.89
2022-11-25T12:48:00.789Z,54.7
2022-11-25T12:49:00.710Z,55.27
2022-11-25T12:50:01.358Z,56.97
2022-11-25T12:51:01.709Z,56.39
2022-11-25T12:52:02.294Z,56.3
2022-11-25T12:53:02.557Z,54.86
2022-11-25T12:54:02.961Z,54.57
2022-11-25T12:55:03.469Z,53.52
2022-11-25T12:56:03.781Z,53.81
2022-11-25T12:57:05.007Z,53.62
2022-11-25T12:58:05.233Z,53.62
2022-11-25T12:59:05.780Z,54.19
2022-11-25T13:00:41.374Z,53.33
2022-11-25T13:01:07.439Z,52.63
2022-11-25T13:02:08.153Z,53.11
2022-11-25T13:03:13.681Z,53.69